createdAt,value
2019-02-12T00:00:16.412Z,95.90
2019-02-12T00:03:00.660Z,96.00
2019-02-12T00:05:34.285Z,96.00
2019-02-12T00:08:05.852Z,96.10
2019-02-12T00:13:28.032Z,96.10
2019-02-12T00:15:56.424Z,96.20
2019-02-12T00:18:24.808Z,96.30
2019-02-12T00:20:57.782Z,96.30
2019-02-12T00:23:27.874Z,96.20
2019-02-12T00:25:56.858Z,96.10
2019-02-12T00:28:26.342Z,96.10
2019-02-12T00:30:54.726Z,96.50
2019-02-12T00:33:33.562Z,96.70
2019-02-12T00:36:15.223Z,96.60
2019-02-12T00:38:51.922Z,96.50
2019-02-12T00:41:30.760Z,96.20
2019-02-12T00:44:11.687Z,96.40
2019-02-12T00:46:42.438Z,96.20
2019-02-12T00:49:16.384Z,96.50
2019-02-12T00:51:46.370Z,96.50
2019-02-12T00:54:16.518Z,96.60
2019-02-12T00:56:47.657Z,96.30
2019-02-12T00:59:17.363Z,96.60
2019-02-12T01:01:47.182Z,96.50
2019-02-12T01:04:21.644Z,96.50
2019-02-12T01:06:52.730Z,96.60
2019-02-12T01:09:36.778Z,96.70
2019-02-12T01:12:19.829Z,96.80
2019-02-12T01:14:48.212Z,96.30
2019-02-12T01:17:21.178Z,96.30
2019-02-12T01:19:55.601Z,96.30
2019-02-12T01:22:23.956Z,96.50
2019-02-12T01:24:52.318Z,96.30
2019-02-12T01:27:22.667Z,96.00
2019-02-12T01:29:51.026Z,96.20
2019-02-12T01:32:19.382Z,96.20
2019-02-12T01:34:47.754Z,95.90
2019-02-12T01:37:16.154Z,95.80
2019-02-12T01:39:46.496Z,95.50
2019-02-12T01:42:17.334Z,95.30
2019-02-12T01:44:47.877Z,95.50
2019-02-12T01:47:24.342Z,95.80
2019-02-12T01:49:53.631Z,95.80
2019-02-12T01:52:23.320Z,95.40
2019-02-12T01:54:56.308Z,95.60
2019-02-12T01:57:27.992Z,95.60
2019-02-12T02:00:03.947Z,95.90
2019-02-12T02:02:37.963Z,96.00
2019-02-12T02:05:26.510Z,95.90
2019-02-12T02:07:58.154Z,96.00
2019-02-12T02:10:28.905Z,96.10
2019-02-12T02:12:57.576Z,95.90
2019-02-12T02:15:27.580Z,95.80
2019-02-12T02:17:57.498Z,93.60
2019-02-12T02:20:27.435Z,94.00
2019-02-12T02:22:57.419Z,93.60
2019-02-12T02:25:31.043Z,92.70
2019-02-12T02:28:00.986Z,92.60
2019-02-12T02:30:33.425Z,92.80
2019-02-12T02:33:01.787Z,93.00
2019-02-12T02:35:30.836Z,93.10
2019-02-12T02:38:00.270Z,93.70
2019-02-12T02:40:40.200Z,93.10
2019-02-12T02:43:12.016Z,93.10
2019-02-12T02:45:49.132Z,92.90
2019-02-12T02:48:25.926Z,92.90
2019-02-12T02:51:14.677Z,93.10
2019-02-12T02:53:52.701Z,93.10
2019-02-12T02:56:23.481Z,93.50
2019-02-12T02:58:53.156Z,93.70
2019-02-12T03:01:21.456Z,93.70
2019-02-12T03:03:50.650Z,93.50
2019-02-12T03:06:19.051Z,93.40
2019-02-12T03:08:47.419Z,93.60
2019-02-12T03:11:18.234Z,93.30
2019-02-12T03:14:10.571Z,93.70
2019-02-12T03:16:43.147Z,93.40
2019-02-12T03:19:11.512Z,93.00
2019-02-12T03:21:45.543Z,93.00
2019-02-12T03:24:18.654Z,93.00
2019-02-12T03:29:44.510Z,92.60
2019-02-12T03:32:30.002Z,92.10
2019-02-12T03:37:57.078Z,92.10
2019-02-12T03:40:33.791Z,92.10
2019-02-12T03:43:07.888Z,92.00
2019-02-12T03:45:36.379Z,91.40
2019-02-12T03:48:05.407Z,90.90
2019-02-12T03:50:33.717Z,91.10
2019-02-12T03:53:07.546Z,91.00
2019-02-12T03:55:35.712Z,90.60
2019-02-12T03:58:04.079Z,90.40
2019-02-12T04:00:38.915Z,86.40
2019-02-12T04:03:08.896Z,87.70
2019-02-12T04:05:56.220Z,88.00
2019-02-12T04:08:33.120Z,88.90
2019-02-12T04:11:08.182Z,88.50
2019-02-12T04:13:42.357Z,88.90
2019-02-12T04:16:16.718Z,86.30
2019-02-12T04:18:58.156Z,86.90
2019-02-12T04:21:33.350Z,83.60
2019-02-12T04:24:09.802Z,85.60
2019-02-12T04:26:41.159Z,86.00
2019-02-12T04:29:24.024Z,86.00
2019-02-12T04:32:11.689Z,86.20
2019-02-12T04:34:50.807Z,86.20
2019-02-12T04:37:33.096Z,86.60
2019-02-12T04:46:07.685Z,85.50
2019-02-12T04:48:42.227Z,86.10
2019-02-12T04:51:15.264Z,87.30
2019-02-12T04:53:49.887Z,88.60
2019-02-12T04:56:18.313Z,88.30
2019-02-12T04:58:52.342Z,89.10
2019-02-12T05:01:21.905Z,89.20
2019-02-12T05:03:53.683Z,89.20
2019-02-12T05:06:26.957Z,89.40
2019-02-12T05:09:14.038Z,89.60
2019-02-12T05:11:53.999Z,89.70
2019-02-12T05:14:42.933Z,90.00
2019-02-12T05:17:16.973Z,89.50
2019-02-12T05:19:50.131Z,90.00
2019-02-12T05:25:11.865Z,89.60
2019-02-12T05:30:36.748Z,89.70
2019-02-12T05:33:09.109Z,89.60
2019-02-12T05:35:41.992Z,89.40
2019-02-12T05:38:11.373Z,89.60
2019-02-12T05:40:42.041Z,89.70
2019-02-12T05:43:14.221Z,89.20
2019-02-12T05:45:47.132Z,89.60
2019-02-12T05:51:37.713Z,89.70
2019-02-12T05:54:14.130Z,89.80
2019-02-12T05:56:47.532Z,90.10
2019-02-12T05:59:31.632Z,90.10
2019-02-12T06:02:08.312Z,90.40
2019-02-12T06:04:36.710Z,90.00
2019-02-12T06:07:06.384Z,90.40
2019-02-12T06:09:34.765Z,90.40
2019-02-12T06:12:03.523Z,90.10
2019-02-12T06:14:31.890Z,90.50
2019-02-12T06:17:00.263Z,90.40
2019-02-12T06:19:28.665Z,90.40
2019-02-12T06:21:57.079Z,90.40
2019-02-12T06:24:29.782Z,90.60
2019-02-12T06:27:00.142Z,90.60
2019-02-12T06:29:32.282Z,90.60
2019-02-12T06:32:00.669Z,90.60
2019-02-12T06:34:30.356Z,90.60
2019-02-12T06:36:58.661Z,90.50
2019-02-12T06:39:29.723Z,90.30
2019-02-12T06:41:59.640Z,90.50
2019-02-12T06:44:28.021Z,90.50
2019-02-12T06:46:56.398Z,90.60
2019-02-12T06:49:24.770Z,90.40
2019-02-12T06:51:53.123Z,90.40
2019-02-12T06:54:21.545Z,90.60
2019-02-12T06:56:49.918Z,90.30
2019-02-12T06:59:19.999Z,90.30
2019-02-12T07:01:48.391Z,90.30
2019-02-12T07:04:18.146Z,90.40
2019-02-12T07:07:01.677Z,90.60
2019-02-12T07:09:39.294Z,90.60
2019-02-12T07:12:18.030Z,90.70
2019-02-12T07:15:00.766Z,90.40
2019-02-12T07:17:53.299Z,90.30
2019-02-12T07:20:40.492Z,90.50
2019-02-12T07:23:21.591Z,90.20
2019-02-12T07:25:58.894Z,90.00
2019-02-12T07:28:35.962Z,89.60
2019-02-12T07:34:08.047Z,87.80
2019-02-12T07:36:57.436Z,88.00
2019-02-12T07:39:31.535Z,87.80
2019-02-12T07:42:18.327Z,88.10
2019-02-12T07:44:54.040Z,87.70
2019-02-12T07:47:40.646Z,87.10
2019-02-12T07:50:28.918Z,87.20
2019-02-12T07:53:01.967Z,87.20
2019-02-12T07:55:37.628Z,86.10
2019-02-12T07:58:36.742Z,85.70
2019-02-12T08:01:06.999Z,84.70
2019-02-12T08:03:45.855Z,85.00
2019-02-12T08:06:27.247Z,84.00
2019-02-12T08:09:31.067Z,83.20
2019-02-12T08:12:20.991Z,83.10
2019-02-12T08:15:03.188Z,81.90
2019-02-12T08:17:33.249Z,81.30
2019-02-12T08:20:19.782Z,81.20
2019-02-12T08:22:58.636Z,79.40
2019-02-12T08:25:55.996Z,80.30
2019-02-12T08:28:38.010Z,79.80
2019-02-12T08:31:11.780Z,77.70
2019-02-12T08:33:50.434Z,77.60
2019-02-12T08:36:20.496Z,77.30
2019-02-12T08:39:11.801Z,77.30
2019-02-12T08:41:47.673Z,76.80
2019-02-12T08:44:26.796Z,76.90
2019-02-12T08:47:02.967Z,77.60
2019-02-12T08:49:47.370Z,77.50
2019-02-12T08:52:25.822Z,76.70
2019-02-12T08:54:58.842Z,76.60
2019-02-12T08:57:51.494Z,77.00
2019-02-12T09:00:21.555Z,76.10
2019-02-12T09:03:25.201Z,75.50
2019-02-12T09:06:00.864Z,76.70
2019-02-12T09:08:52.084Z,75.50
2019-02-12T09:11:28.054Z,74.40
2019-02-12T09:13:58.170Z,74.40
2019-02-12T09:16:49.089Z,73.10
2019-02-12T09:19:41.270Z,72.40
2019-02-12T09:22:29.327Z,72.10
2019-02-12T09:25:08.083Z,70.00
2019-02-12T09:27:54.571Z,69.50
2019-02-12T09:30:57.407Z,67.80
2019-02-12T09:33:33.478Z,69.40
2019-02-12T09:36:12.520Z,68.90
2019-02-12T09:39:05.027Z,69.70
2019-02-12T09:41:48.690Z,69.60
2019-02-12T09:47:27.730Z,69.60
2019-02-12T09:50:11.232Z,70.90
2019-02-12T09:53:00.932Z,71.80
2019-02-12T09:55:38.390Z,72.80
2019-02-12T09:58:31.450Z,71.30
2019-02-12T10:01:30.215Z,72.20
2019-02-12T10:04:22.214Z,73.00
2019-02-12T10:06:59.455Z,72.60
2019-02-12T10:10:01.388Z,73.10
2019-02-12T10:12:39.519Z,72.90
2019-02-12T10:15:29.127Z,72.20
2019-02-12T10:18:24.786Z,72.00
2019-02-12T10:21:14.358Z,71.40
2019-02-12T10:24:06.749Z,71.00
2019-02-12T10:26:41.610Z,71.80
2019-02-12T10:29:26.502Z,72.40
2019-02-12T10:32:08.373Z,72.20
2019-02-12T10:34:30.191Z,72.00
2019-02-12T10:37:00.670Z,72.20
2019-02-12T10:39:34.472Z,71.80
2019-02-12T10:42:06.540Z,71.40
2019-02-12T10:44:38.043Z,70.10
2019-02-12T10:47:12.783Z,70.00
2019-02-12T10:49:47.142Z,69.70
2019-02-12T10:52:23.408Z,69.40
2019-02-12T10:57:45.271Z,69.20
2019-02-12T11:00:18.235Z,68.80
2019-02-12T11:02:50.632Z,69.50
2019-02-12T11:05:44.360Z,69.60
2019-02-12T11:08:14.235Z,67.80
2019-02-12T11:10:47.422Z,67.80
2019-02-12T11:13:28.286Z,68.00
2019-02-12T11:16:00.735Z,68.50
2019-02-12T11:18:34.596Z,69.20
2019-02-12T11:21:11.530Z,69.90
2019-02-12T11:23:36.040Z,70.10
2019-02-12T11:26:08.583Z,69.90
2019-02-12T11:28:46.190Z,70.80
2019-02-12T11:31:20.056Z,70.70
2019-02-12T11:33:58.368Z,71.30
2019-02-12T11:36:31.764Z,72.40
2019-02-12T11:39:00.908Z,72.90
2019-02-12T11:41:29.280Z,72.70
2019-02-12T11:43:57.666Z,73.00
2019-02-12T11:46:26.064Z,73.60
2019-02-12T11:48:54.532Z,74.10
2019-02-12T11:51:22.901Z,75.10
2019-02-12T11:53:52.871Z,74.70
2019-02-12T11:56:21.228Z,74.40
2019-02-12T11:58:49.677Z,75.40
2019-02-12T12:01:19.057Z,74.90
2019-02-12T12:03:47.415Z,75.30
2019-02-12T12:06:16.821Z,75.00
2019-02-12T12:08:45.219Z,75.40
2019-02-12T12:11:14.400Z,75.20
2019-02-12T12:13:44.403Z,75.40
2019-02-12T12:16:13.288Z,75.60
2019-02-12T12:18:41.817Z,76.20
2019-02-12T12:21:10.161Z,76.70
2019-02-12T12:23:39.365Z,77.00
2019-02-12T12:26:08.044Z,77.30
2019-02-12T12:28:36.493Z,77.10
2019-02-12T12:31:06.229Z,77.40
2019-02-12T12:33:34.891Z,78.10
2019-02-12T12:36:03.839Z,77.80
2019-02-12T12:38:34.307Z,77.70
2019-02-12T12:41:02.696Z,77.60
2019-02-12T12:43:31.043Z,77.00
2019-02-12T12:45:59.434Z,77.50
2019-02-12T12:48:28.205Z,77.90
2019-02-12T12:50:56.571Z,77.60
2019-02-12T12:53:24.941Z,77.50
2019-02-12T12:55:54.980Z,78.00
2019-02-12T12:58:24.979Z,77.70
2019-02-12T13:00:56.736Z,78.00
2019-02-12T13:03:27.180Z,77.70
2019-02-12T13:05:55.620Z,77.90
2019-02-12T13:08:24.004Z,79.00
2019-02-12T13:10:52.383Z,78.30
2019-02-12T13:13:20.763Z,78.50
2019-02-12T13:15:50.500Z,78.40
2019-02-12T13:18:20.861Z,78.50
2019-02-12T13:20:49.288Z,78.10
2019-02-12T13:23:17.667Z,78.00
2019-02-12T13:25:46.115Z,78.20
2019-02-12T13:28:14.521Z,78.30
2019-02-12T13:30:42.904Z,77.70
2019-02-12T13:33:11.277Z,77.70
2019-02-12T13:35:39.687Z,77.70
2019-02-12T13:38:08.155Z,77.50
2019-02-12T13:40:36.515Z,77.20
2019-02-12T13:43:04.887Z,77.00
2019-02-12T13:45:33.253Z,77.20
2019-02-12T13:48:01.651Z,77.10
2019-02-12T13:50:33.324Z,77.40
2019-02-12T13:53:02.186Z,76.80
2019-02-12T13:55:30.625Z,77.30
2019-02-12T13:57:58.960Z,77.60
2019-02-12T14:00:27.355Z,77.60
2019-02-12T14:02:56.339Z,76.90
2019-02-12T14:05:27.182Z,78.10
2019-02-12T14:07:56.589Z,77.30
2019-02-12T14:10:24.906Z,77.20
2019-02-12T14:12:53.457Z,76.80
2019-02-12T14:15:21.973Z,76.60
2019-02-12T14:17:50.361Z,76.80
2019-02-12T14:20:19.391Z,76.80
2019-02-12T14:22:57.922Z,76.40
2019-02-12T14:25:26.297Z,76.00
2019-02-12T14:27:54.688Z,76.00
2019-02-12T14:30:23.518Z,76.20
2019-02-12T14:32:53.109Z,76.00
2019-02-12T14:35:22.159Z,75.50
2019-02-12T14:37:58.174Z,75.90
2019-02-12T14:40:26.534Z,75.60
2019-02-12T14:42:55.279Z,75.80
2019-02-12T14:45:23.679Z,76.10
2019-02-12T14:47:53.562Z,76.40
2019-02-12T14:50:25.876Z,75.70
2019-02-12T14:52:56.897Z,75.70
2019-02-12T14:58:38.268Z,74.90
2019-02-12T15:09:56.824Z,73.90
2019-02-12T15:12:26.260Z,73.80
2019-02-12T15:14:55.492Z,74.10
2019-02-12T15:17:33.022Z,74.90
2019-02-12T15:20:03.504Z,74.40
2019-02-12T15:22:39.261Z,74.40
2019-02-12T15:25:25.096Z,74.80
2019-02-12T15:27:56.376Z,75.20
2019-02-12T15:30:24.800Z,75.90
2019-02-12T15:32:54.286Z,76.10
2019-02-12T15:35:22.628Z,76.10
2019-02-12T15:37:51.032Z,76.50
2019-02-12T15:40:21.549Z,76.60
2019-02-12T15:42:49.912Z,77.30
2019-02-12T15:45:22.677Z,76.80
2019-02-12T15:47:52.126Z,77.30
2019-02-12T15:50:24.646Z,78.00
2019-02-12T15:52:57.077Z,78.50
2019-02-12T15:55:42.152Z,78.50
2019-02-12T15:58:08.004Z,78.80
2019-02-12T16:03:38.162Z,79.20
2019-02-12T16:06:08.244Z,79.30
2019-02-12T16:08:40.146Z,79.50
2019-02-12T16:11:11.516Z,79.20
2019-02-12T16:13:45.204Z,79.40
2019-02-12T16:16:20.368Z,79.30
2019-02-12T16:18:55.631Z,78.80
2019-02-12T16:21:29.424Z,78.60
2019-02-12T16:24:00.571Z,78.00
2019-02-12T16:26:30.256Z,78.30
2019-02-12T16:29:05.554Z,78.10
2019-02-12T16:31:38.094Z,77.90
2019-02-12T16:34:11.732Z,77.70
2019-02-12T16:36:41.580Z,78.50
2019-02-12T16:39:13.854Z,79.00
2019-02-12T16:41:46.240Z,78.70
2019-02-12T16:44:16.456Z,78.70
2019-02-12T16:46:47.064Z,78.70
2019-02-12T16:49:17.044Z,79.00
2019-02-12T16:51:46.942Z,78.70
2019-02-12T16:54:16.002Z,78.50
2019-02-12T16:56:45.670Z,78.70
2019-02-12T17:00:07.438Z,79.00
2019-02-12T17:01:52.875Z,78.90
2019-02-12T17:04:22.646Z,79.00
2019-02-12T17:06:52.139Z,78.80
2019-02-12T17:09:20.516Z,78.80
2019-02-12T17:11:48.905Z,77.70
2019-02-12T17:14:21.802Z,77.40
2019-02-12T17:16:50.204Z,77.70
2019-02-12T17:19:18.601Z,77.40
2019-02-12T17:21:47.019Z,77.10
2019-02-12T17:24:21.185Z,77.20
2019-02-12T17:26:50.880Z,77.60
2019-02-12T17:29:19.875Z,77.70
2019-02-12T17:31:51.874Z,78.20
2019-02-12T17:34:21.946Z,78.20
2019-02-12T17:36:51.761Z,78.50
2019-02-12T17:39:20.167Z,79.20
2019-02-12T17:41:48.506Z,79.20
2019-02-12T17:44:18.125Z,79.20
2019-02-12T17:46:46.475Z,79.00
2019-02-12T17:49:14.895Z,79.00
2019-02-12T17:51:43.279Z,79.30
2019-02-12T17:54:11.768Z,79.30
2019-02-12T17:56:41.694Z,79.40
2019-02-12T17:59:10.029Z,79.90
2019-02-12T18:01:45.089Z,80.10
2019-02-12T18:04:15.598Z,80.30
2019-02-12T18:06:45.483Z,80.10
2019-02-12T18:09:17.368Z,79.30
2019-02-12T18:11:46.908Z,79.60
2019-02-12T18:14:16.945Z,79.50
2019-02-12T18:16:45.309Z,79.30
2019-02-12T18:19:15.011Z,79.80
2019-02-12T18:21:43.381Z,79.80
2019-02-12T18:24:11.780Z,80.10
2019-02-12T18:26:40.154Z,80.30
2019-02-12T18:29:09.075Z,80.40
2019-02-12T18:31:37.491Z,80.70
2019-02-12T18:34:05.859Z,81.00
2019-02-12T18:36:34.230Z,81.10
2019-02-12T18:39:04.335Z,81.50
2019-02-12T18:41:32.717Z,81.70
2019-02-12T18:44:03.989Z,82.10
2019-02-12T18:46:32.382Z,82.30
2019-02-12T18:49:00.743Z,82.50
2019-02-12T18:51:29.123Z,82.80
2019-02-12T18:53:57.607Z,83.00
2019-02-12T18:56:26.850Z,83.10
2019-02-12T18:58:55.216Z,83.30
2019-02-12T19:01:23.695Z,83.40
2019-02-12T19:03:56.638Z,83.60
2019-02-12T19:06:27.460Z,83.90
2019-02-12T19:09:05.803Z,84.20
2019-02-12T19:11:45.714Z,84.40
2019-02-12T19:14:05.601Z,84.70
2019-02-12T19:16:34.467Z,84.80
2019-02-12T19:19:03.471Z,84.80
2019-02-12T19:21:33.887Z,85.30
2019-02-12T19:24:04.213Z,85.50
2019-02-12T19:29:27.819Z,85.80
2019-02-12T19:31:59.386Z,86.10
2019-02-12T19:34:31.168Z,86.40
2019-02-12T19:36:59.499Z,86.70
2019-02-12T19:39:27.945Z,87.00
2019-02-12T19:41:56.694Z,87.00
2019-02-12T19:44:25.257Z,87.30
2019-02-12T19:46:53.632Z,87.70
2019-02-12T19:49:23.226Z,87.80
2019-02-12T19:51:51.605Z,88.30
2019-02-12T19:54:27.050Z,88.50
2019-02-12T19:57:03.624Z,88.80
2019-02-12T19:59:32.611Z,89.10
2019-02-12T20:02:01.012Z,89.40
2019-02-12T20:04:32.955Z,89.50
2019-02-12T20:07:03.871Z,89.70
2019-02-12T20:09:32.890Z,90.10
2019-02-12T20:12:01.285Z,90.20
2019-02-12T20:14:32.453Z,90.40
2019-02-12T20:17:00.875Z,90.50
2019-02-12T20:19:29.295Z,90.70
2019-02-12T20:22:01.143Z,90.80
2019-02-12T20:24:33.499Z,90.80
2019-02-12T20:27:06.773Z,90.90
2019-02-12T20:29:37.207Z,91.00
2019-02-12T20:32:05.558Z,91.00
2019-02-12T20:34:39.029Z,91.00
2019-02-12T20:37:15.605Z,91.50
2019-02-12T20:39:56.300Z,91.20
2019-02-12T20:42:26.002Z,91.20
2019-02-12T20:44:57.392Z,91.20
2019-02-12T20:47:30.491Z,91.20
2019-02-12T20:50:04.498Z,91.20
2019-02-12T20:52:35.456Z,91.10
2019-02-12T20:55:25.567Z,91.00
2019-02-12T20:57:56.759Z,91.00
2019-02-12T21:00:25.546Z,90.90
2019-02-12T21:02:56.061Z,90.70
2019-02-12T21:05:34.478Z,90.70
2019-02-12T21:08:14.240Z,90.70
2019-02-12T21:11:01.998Z,90.60
2019-02-12T21:13:36.577Z,90.50
2019-02-12T21:16:11.717Z,90.70
2019-02-12T21:21:37.244Z,90.70
2019-02-12T21:24:12.589Z,90.70
2019-02-12T21:27:02.475Z,90.70
2019-02-12T21:29:32.520Z,90.70
2019-02-12T21:32:02.013Z,90.80
2019-02-12T21:34:33.821Z,90.70
2019-02-12T21:37:02.255Z,90.70
2019-02-12T21:39:32.172Z,90.60
2019-02-12T21:42:00.849Z,90.80
2019-02-12T21:44:29.743Z,90.80
2019-02-12T21:46:59.759Z,90.70
2019-02-12T21:49:37.037Z,90.60
2019-02-12T21:52:06.044Z,90.60
2019-02-12T21:54:34.435Z,90.70
2019-02-12T21:57:04.690Z,90.70
2019-02-12T21:59:33.291Z,90.70
2019-02-12T22:02:03.734Z,90.70
2019-02-12T22:04:34.812Z,90.60
2019-02-12T22:07:06.244Z,90.70
2019-02-12T22:09:39.114Z,90.60
2019-02-12T22:12:07.521Z,90.60
2019-02-12T22:14:36.515Z,90.70
2019-02-12T22:17:05.527Z,90.80
2019-02-12T22:19:36.655Z,90.90
2019-02-12T22:22:05.130Z,91.00
2019-02-12T22:24:35.198Z,91.00
2019-02-12T22:27:04.148Z,91.00
2019-02-12T22:29:32.515Z,91.10
2019-02-12T22:32:00.951Z,91.10
2019-02-12T22:34:31.062Z,91.20
2019-02-12T22:37:04.748Z,91.40
2019-02-12T22:39:43.504Z,91.90
2019-02-12T22:42:14.170Z,91.70
2019-02-12T22:44:42.916Z,91.80
2019-02-12T22:47:11.372Z,91.80
2019-02-12T22:49:39.818Z,92.20
2019-02-12T22:52:08.228Z,92.10
2019-02-12T22:54:36.934Z,92.20
2019-02-12T22:57:07.092Z,92.00
2019-02-12T22:59:37.045Z,92.40
2019-02-12T23:02:05.641Z,91.90
2019-02-12T23:04:35.119Z,91.90
2019-02-12T23:07:05.388Z,91.90
2019-02-12T23:09:36.534Z,91.90
2019-02-12T23:12:05.982Z,91.90
2019-02-12T23:14:38.931Z,91.90
2019-02-12T23:17:08.934Z,91.90
2019-02-12T23:19:39.630Z,91.80
2019-02-12T23:22:07.942Z,91.80
2019-02-12T23:24:42.832Z,91.90
2019-02-12T23:27:11.919Z,91.90
2019-02-12T23:29:40.295Z,91.80
2019-02-12T23:32:11.468Z,91.90
2019-02-12T23:34:39.838Z,91.90
2019-02-12T23:37:08.216Z,91.90
2019-02-12T23:39:40.916Z,92.00
2019-02-12T23:42:10.223Z,92.00
2019-02-12T23:44:40.584Z,92.00
2019-02-12T23:47:10.530Z,92.20
2019-02-12T23:49:40.214Z,92.20
2019-02-12T23:52:08.592Z,92.30
2019-02-12T23:54:41.028Z,92.40
2019-02-12T23:58:07.268Z,92.40
